Time;durP1;ratioP1;P1;durP2;ratioP2;P2;SDS_P1;SDS_P2;PMS_P1;PMS_P2;Temp;Humidity;BMP_temperature;BMP_pressure;BME280_temperature;BME280_humidity;BME280_pressure;Samples;Min_cycle;Max_cycle;Signal;HPM_P1;HPM_P2
2023/04/24 04:03:00;;;;;;;1.60;0.77;;;11.50;87.20;;;;;;4936446;29;20480;-77
2023/04/24 04:05:26;;;;;;;2.30;0.83;;;11.60;86.10;;;;;;4937083;29;21024;-76
2023/04/24 04:07:53;;;;;;;1.60;0.70;;;11.40;86.60;;;;;;4937376;29;20459;-76
2023/04/24 04:10:20;;;;;;;1.80;0.80;;;11.50;89.20;;;;;;4936267;29;20488;-79
2023/04/24 04:12:46;;;;;;;1.63;0.67;;;11.50;87.00;;;;;;4936807;29;20456;-78
2023/04/24 04:15:13;;;;;;;1.67;0.80;;;11.40;86.90;;;;;;4936926;29;20980;-77
2023/04/24 04:17:40;;;;;;;1.93;0.93;;;11.40;87.20;;;;;;4936778;29;21025;-77
2023/04/24 04:20:10;;;;;;;1.90;1.00;;;11.60;87.40;;;;;;4937235;29;20460;-77
2023/04/24 04:22:37;;;;;;;1.60;0.70;;;11.70;86.80;;;;;;4936615;29;21012;-77
2023/04/24 04:25:04;;;;;;;1.90;0.80;;;11.80;86.20;;;;;;4936607;29;20555;-77
2023/04/24 04:27:32;;;;;;;1.50;0.60;;;12.10;85.60;;;;;;4936536;29;20870;-77
2023/04/24 04:29:59;;;;;;;1.93;0.90;;;12.20;84.50;;;;;;4936385;29;21000;-77
2023/04/24 04:32:26;;;;;;;1.80;0.93;;;12.30;84.70;;;;;;4936841;29;20481;-77
2023/04/24 04:34:53;;;;;;;1.87;0.90;;;12.20;85.10;;;;;;4936376;29;20949;-77
2023/04/24 04:37:21;;;;;;;1.70;0.80;;;12.00;83.90;;;;;;4936480;29;20997;-77
2023/04/24 04:39:48;;;;;;;1.80;0.90;;;11.80;81.90;;;;;;4936711;29;20562;-77
2023/04/24 04:42:15;;;;;;;1.80;0.80;;;11.60;82.80;;;;;;4936641;29;20547;-76
2023/04/24 04:44:42;;;;;;;1.90;0.83;;;11.50;83.20;;;;;;4936770;29;20471;-77
2023/04/24 04:47:10;;;;;;;1.70;0.90;;;11.40;83.30;;;;;;4936648;29;20460;-76
2023/04/24 04:49:38;;;;;;;1.60;0.80;;;11.20;83.60;;;;;;4936213;29;20884;-76
2023/04/24 04:52:04;;;;;;;1.73;0.90;;;11.20;83.90;;;;;;4936247;29;20517;-76
2023/04/24 04:54:32;;;;;;;1.80;0.80;;;11.30;84.70;;;;;;4936444;29;20456;-76
2023/04/24 04:57:00;;;;;;;1.80;0.80;;;11.10;83.50;;;;;;4936397;29;20452;-75
2023/04/24 04:59:27;;;;;;;1.80;0.80;;;11.10;84.50;;;;;;4936781;29;20448;-76
2023/04/24 05:01:53;;;;;;;1.60;0.73;;;11.20;83.80;;;;;;4935891;29;21001;-77
2023/04/24 05:04:20;;;;;;;1.60;0.80;;;11.30;84.00;;;;;;4938308;29;20531;-78
2023/04/24 05:06:47;;;;;;;2.23;1.00;;;11.20;83.40;;;;;;4935846;29;20941;-77
2023/04/24 05:09:14;;;;;;;1.80;0.90;;;11.30;83.30;;;;;;4936449;29;20487;-77
2023/04/24 05:11:42;;;;;;;1.70;0.83;;;11.30;83.70;;;;;;4936028;29;20483;-77
2023/04/24 05:14:09;;;;;;;1.63;0.77;;;11.40;84.20;;;;;;4936109;29;20452;-78
2023/04/24 05:16:36;;;;;;;1.67;0.80;;;11.50;83.50;;;;;;4936784;29;20455;-79
2023/04/24 05:19:03;;;;;;;2.93;0.90;;;11.50;82.40;;;;;;4936842;29;20460;-78
2023/04/24 05:21:30;;;;;;;1.70;0.90;;;11.40;82.70;;;;;;4936840;29;20527;-78
2023/04/24 05:23:57;;;;;;;1.53;0.73;;;11.50;83.10;;;;;;4937242;29;20519;-78
2023/04/24 05:26:24;;;;;;;1.83;0.90;;;11.60;83.40;;;;;;4938338;29;20597;-79
2023/04/24 05:28:52;;;;;;;1.80;0.90;;;11.70;82.40;;;;;;4937420;29;20480;-79
2023/04/24 05:31:18;;;;;;;2.00;0.87;;;11.70;82.30;;;;;;4936609;29;20824;-78
2023/04/24 05:33:45;;;;;;;1.60;0.70;;;11.70;82.40;;;;;;4937121;29;20946;-81
2023/04/24 05:36:12;;;;;;;1.57;0.70;;;11.80;82.10;;;;;;4941754;29;20448;-82
2023/04/24 05:38:39;;;;;;;1.60;0.80;;;11.80;82.50;;;;;;4940729;29;20801;-82
2023/04/24 05:41:06;;;;;;;1.60;0.80;;;11.90;82.00;;;;;;4939380;29;21028;-83
2023/04/24 05:43:32;;;;;;;1.57;0.73;;;12.00;82.40;;;;;;4939130;29;20452;-82
2023/04/24 05:46:00;;;;;;;1.60;0.90;;;11.90;81.90;;;;;;4939392;29;20531;-83
2023/04/24 05:48:27;;;;;;;1.60;0.90;;;12.00;82.60;;;;;;4939733;29;20459;-83
2023/04/24 05:50:54;;;;;;;2.33;1.10;;;11.90;82.00;;;;;;4937747;29;20969;-83
2023/04/24 05:53:21;;;;;;;1.57;0.77;;;11.90;82.60;;;;;;4937764;29;20818;-82
2023/04/24 05:55:48;;;;;;;1.80;0.90;;;11.90;82.20;;;;;;4939929;29;20486;-82
2023/04/24 05:58:15;;;;;;;1.73;0.90;;;11.80;81.80;;;;;;4939027;29;20452;-80
2023/04/24 06:00:43;;;;;;;1.80;0.90;;;11.80;82.30;;;;;;4938048;29;20472;-82
2023/04/24 06:03:11;;;;;;;1.57;0.80;;;11.90;81.80;;;;;;4941589;29;20440;-81
2023/04/24 06:05:37;;;;;;;1.70;0.80;;;11.90;81.90;;;;;;4942269;29;20436;-81
2023/04/24 06:08:04;;;;;;;2.17;1.20;;;12.00;82.10;;;;;;4941782;29;20452;-80
2023/04/24 06:10:31;;;;;;;2.47;1.00;;;12.10;81.20;;;;;;4941343;29;20914;-81
2023/04/24 06:13:00;;;;;;;1.80;0.90;;;12.00;81.90;;;;;;4942947;29;20452;-81
2023/04/24 06:15:28;;;;;;;2.00;0.90;;;12.10;81.90;;;;;;4942265;29;20452;-81
2023/04/24 06:18:02;;;;;;;2.53;1.33;;;12.00;81.30;;;;;;4942747;29;21008;-81
2023/04/24 06:20:31;;;;;;;2.40;1.80;;;12.10;80.30;;;;;;4944084;29;20535;-80
2023/04/24 06:22:58;;;;;;;1.80;1.03;;;12.20;79.80;;;;;;4957714;29;20452;-81
2023/04/24 06:25:26;;;;;;;1.80;0.90;;;12.50;81.30;;;;;;4956613;29;20440;-80
2023/04/24 06:27:53;;;;;;;1.80;1.00;;;12.90;77.90;;;;;;4942109;29;20523;-79
2023/04/24 06:30:19;;;;;;;1.50;0.80;;;13.00;78.30;;;;;;4940496;29;20496;-80
2023/04/24 06:32:46;;;;;;;1.70;0.90;;;13.00;76.40;;;;;;4942224;29;20447;-81
2023/04/24 06:35:12;;;;;;;1.70;0.80;;;13.30;78.30;;;;;;4944719;29;20451;-81
2023/04/24 06:37:43;;;;;;;1.60;0.87;;;13.70;77.70;;;;;;4945851;29;20452;-81
2023/04/24 06:40:10;;;;;;;1.70;0.90;;;13.90;74.60;;;;;;4944409;28;20448;-81
2023/04/24 06:42:37;;;;;;;1.73;0.90;;;14.10;75.00;;;;;;4943895;29;20896;-81
2023/04/24 06:45:05;;;;;;;1.70;0.90;;;14.40;73.90;;;;;;4944570;29;20451;-81
2023/04/24 06:47:31;;;;;;;1.60;0.80;;;14.40;72.00;;;;;;4943904;29;20460;-81
2023/04/24 06:49:58;;;;;;;1.60;0.80;;;14.30;73.40;;;;;;4944080;29;20491;-81
2023/04/24 06:52:25;;;;;;;1.83;0.80;;;14.60;74.70;;;;;;4943098;29;20908;-82
2023/04/24 06:54:53;;;;;;;1.77;0.93;;;15.00;73.00;;;;;;4944078;29;20451;-81
2023/04/24 06:57:20;;;;;;;1.50;0.77;;;15.10;72.10;;;;;;4943245;29;20945;-80
2023/04/24 06:59:47;;;;;;;1.60;0.80;;;15.30;72.30;;;;;;4943149;29;20540;-81
2023/04/24 07:02:14;;;;;;;1.63;0.83;;;15.30;70.70;;;;;;4942199;29;20483;-82
2023/04/24 07:04:41;;;;;;;1.70;0.90;;;15.20;70.40;;;;;;4941135;29;20934;-82
2023/04/24 07:07:09;;;;;;;1.90;0.90;;;15.00;70.50;;;;;;4942388;29;20455;-81
2023/04/24 07:09:38;;;;;;;2.23;0.90;;;14.90;71.70;;;;;;4943164;29;20636;-82
2023/04/24 07:12:07;;;;;;;2.33;1.27;;;14.80;71.00;;;;;;4941167;29;20555;-82
2023/04/24 07:14:33;;;;;;;1.70;0.80;;;14.50;71.00;;;;;;4941203;29;20463;-81
2023/04/24 07:17:01;;;;;;;2.00;0.90;;;14.10;72.00;;;;;;4942249;29;20506;-82
2023/04/24 07:19:27;;;;;;;1.83;0.90;;;13.70;73.90;;;;;;4942434;29;20463;-81
2023/04/24 07:21:54;;;;;;;2.10;1.00;;;13.10;73.40;;;;;;4942922;29;20471;-79
2023/04/24 07:24:21;;;;;;;1.70;0.83;;;12.70;75.80;;;;;;4943832;29;20460;-79
2023/04/24 07:26:48;;;;;;;1.70;0.80;;;12.30;76.40;;;;;;4943778;29;20536;-79
2023/04/24 07:29:16;;;;;;;1.87;0.90;;;12.10;78.30;;;;;;4944345;29;20802;-77
2023/04/24 07:31:43;;;;;;;1.80;0.90;;;11.90;77.90;;;;;;4944170;29;20460;-79
2023/04/24 07:34:10;;;;;;;1.60;0.70;;;11.90;79.10;;;;;;4944224;29;20450;-79
2023/04/24 07:36:38;;;;;;;1.80;0.93;;;12.10;78.40;;;;;;4943001;29;20786;-80
2023/04/24 07:39:05;;;;;;;1.53;0.70;;;12.30;77.50;;;;;;4944707;29;20460;-80
2023/04/24 07:41:32;;;;;;;2.27;0.90;;;12.80;78.40;;;;;;4943709;29;20472;-80
2023/04/24 07:43:59;;;;;;;1.70;0.90;;;13.10;74.50;;;;;;4943346;29;20457;-80
2023/04/24 07:46:29;;;;;;;1.57;0.80;;;13.60;74.90;;;;;;4947248;29;20858;-82
2023/04/24 07:48:56;;;;;;;2.27;1.10;;;13.80;76.00;;;;;;4946435;29;20478;-82
2023/04/24 07:51:23;;;;;;;1.50;0.70;;;14.10;72.70;;;;;;4947198;29;20495;-82
2023/04/24 07:53:49;;;;;;;1.67;0.83;;;14.40;70.70;;;;;;4946847;29;20448;-80
2023/04/24 07:56:17;;;;;;;1.90;1.07;;;14.10;68.50;;;;;;4950857;29;20480;-81
2023/04/24 07:58:43;;;;;;;1.70;0.90;;;13.90;68.70;;;;;;4960340;29;20448;-82
2023/04/24 08:01:10;;;;;;;1.60;0.80;;;13.70;69.30;;;;;;4959661;29;20476;-82
2023/04/24 08:03:38;;;;;;;1.80;0.80;;;13.70;70.10;;;;;;4959753;29;20467;-82
2023/04/24 08:06:05;;;;;;;1.70;0.80;;;13.70;70.20;;;;;;4959808;29;20479;-82
2023/04/24 08:08:32;;;;;;;2.30;0.80;;;13.80;69.70;;;;;;4955916;29;20452;-80
2023/04/24 08:10:59;;;;;;;1.70;0.80;;;14.00;69.90;;;;;;4957333;29;20590;-81
2023/04/24 08:13:25;;;;;;;1.60;0.70;;;14.30;69.70;;;;;;4957896;29;20455;-80
2023/04/24 08:15:52;;;;;;;1.50;0.70;;;14.30;67.40;;;;;;4956824;29;20440;-80
2023/04/24 08:18:19;;;;;;;1.60;0.80;;;14.20;67.00;;;;;;4955446;29;20933;-79
2023/04/24 08:20:47;;;;;;;4.50;0.87;;;14.10;67.40;;;;;;4947258;29;20472;-81
2023/04/24 08:23:13;;;;;;;1.60;0.80;;;14.10;68.20;;;;;;4947555;29;20449;-79
2023/04/24 08:25:40;;;;;;;1.57;0.77;;;13.80;67.10;;;;;;4946169;29;20456;-82
2023/04/24 08:28:09;;;;;;;1.90;1.00;;;13.60;70.20;;;;;;4946359;29;20452;-81
2023/04/24 08:30:36;;;;;;;2.37;0.90;;;13.60;67.90;;;;;;4945361;29;20567;-82
2023/04/24 08:33:02;;;;;;;1.57;0.80;;;13.50;67.80;;;;;;4945151;29;20452;-82
2023/04/24 08:35:29;;;;;;;1.80;0.80;;;13.60;67.60;;;;;;4943805;29;20504;-79
2023/04/24 08:37:57;;;;;;;1.57;0.87;;;13.60;65.30;;;;;;4942147;29;20448;-79
2023/04/24 08:40:30;;;;;;;1.60;0.80;;;13.80;66.70;;;;;;4942354;29;20893;-80
2023/04/24 08:42:57;;;;;;;1.50;0.70;;;14.00;65.80;;;;;;4938672;29;20468;-77
2023/04/24 08:45:25;;;;;;;1.77;0.80;;;14.30;65.70;;;;;;4937294;29;20448;-77
2023/04/24 08:47:54;;;;;;;2.30;1.30;;;14.50;64.40;;;;;;4937025;29;20483;-78
2023/04/24 08:50:21;;;;;;;2.37;0.90;;;14.50;64.30;;;;;;4937196;29;20993;-78
2023/04/24 08:52:50;;;;;;;1.70;0.80;;;14.40;64.30;;;;;;4936807;29;20452;-77
2023/04/24 08:55:20;;;;;;;1.80;0.80;;;14.30;64.40;;;;;;4936495;29;20456;-76
2023/04/24 08:57:50;;;;;;;2.60;0.93;;;13.70;65.20;;;;;;4936917;29;20452;-77
2023/04/24 09:00:18;;;;;;;1.90;0.80;;;13.30;66.50;;;;;;4936830;29;20490;-76
2023/04/24 09:02:48;;;;;;;1.57;0.83;;;13.40;66.30;;;;;;4936939;29;20487;-78
2023/04/24 09:05:15;;;;;;;1.73;0.80;;;13.50;67.10;;;;;;4937561;29;20463;-78
2023/04/24 09:07:45;;;;;;;2.43;0.90;;;13.90;67.20;;;;;;4936895;29;20552;-78
2023/04/24 09:10:13;;;;;;;1.60;0.70;;;14.00;63.30;;;;;;4937202;29;20566;-78
2023/04/24 09:12:42;;;;;;;1.83;0.90;;;14.00;65.20;;;;;;4937064;29;20555;-78
2023/04/24 09:15:10;;;;;;;3.00;0.90;;;14.00;62.80;;;;;;4937637;29;20495;-78
2023/04/24 09:17:37;;;;;;;1.70;0.90;;;14.10;65.80;;;;;;4936582;29;20483;-77
2023/04/24 09:20:04;;;;;;;1.97;1.00;;;14.30;65.90;;;;;;4936611;29;20508;-77
2023/04/24 09:22:31;;;;;;;2.33;1.10;;;14.30;64.00;;;;;;4936595;29;20476;-84
2023/04/24 09:25:05;;;;;;;1.90;0.90;;;13.90;62.50;;;;;;4936675;29;20452;-78
2023/04/24 09:27:32;;;;;;;1.90;0.90;;;13.70;65.10;;;;;;4936886;29;20440;-78
2023/04/24 09:30:00;;;;;;;2.47;0.90;;;13.60;62.40;;;;;;4936617;29;20518;-77
2023/04/24 09:32:29;;;;;;;1.60;0.80;;;13.60;63.50;;;;;;4936471;29;20476;-77
2023/04/24 09:35:11;;;;;;;4.20;0.93;;;13.70;62.70;;;;;;4937954;29;20456;-78
2023/04/24 09:37:39;;;;;;;1.70;0.83;;;13.60;60.70;;;;;;4938262;29;20996;-78
2023/04/24 09:40:11;;;;;;;2.87;0.90;;;13.80;58.80;;;;;;4936558;29;20511;-78
2023/04/24 09:42:38;;;;;;;1.70;0.70;;;13.60;57.60;;;;;;4936523;29;20504;-78
2023/04/24 09:45:10;;;;;;;2.03;1.00;;;13.50;58.50;;;;;;4938198;29;20452;-78
2023/04/24 09:47:37;;;;;;;1.70;0.80;;;13.60;60.10;;;;;;4936715;29;20442;-78
2023/04/24 09:50:11;;;;;;;1.60;0.70;;;13.60;60.70;;;;;;4936295;29;20535;-78
2023/04/24 09:52:41;;;;;;;1.70;0.80;;;13.40;59.20;;;;;;4936015;29;20472;-78
2023/04/24 09:55:12;;;;;;;1.80;0.83;;;13.60;59.30;;;;;;4936248;29;20535;-76
2023/04/24 09:57:48;;;;;;;1.60;0.70;;;13.80;58.10;;;;;;4936022;29;20436;-77
2023/04/24 10:00:20;;;;;;;1.63;1.00;;;13.90;58.90;;;;;;4936066;29;20452;-78
2023/04/24 10:02:51;;;;;;;1.83;0.80;;;14.00;57.80;;;;;;4936955;29;20551;-78
2023/04/24 10:05:18;;;;;;;3.00;0.90;;;14.00;58.40;;;;;;4936713;29;20439;-80
2023/04/24 10:07:46;;;;;;;1.50;0.70;;;13.70;57.50;;;;;;4937618;29;20448;-77
2023/04/24 10:10:12;;;;;;;1.60;0.87;;;13.70;59.30;;;;;;4939746;29;20499;-77
2023/04/24 10:12:40;;;;;;;1.90;0.77;;;13.90;59.10;;;;;;4939972;29;20463;-76
2023/04/24 10:15:09;;;;;;;1.60;0.70;;;14.30;59.10;;;;;;4939890;29;20460;-77
2023/04/24 10:17:37;;;;;;;2.07;0.77;;;14.50;57.10;;;;;;4940793;29;20507;-77
2023/04/24 10:20:06;;;;;;;1.50;0.70;;;14.50;57.10;;;;;;4941473;29;20452;-77
2023/04/24 10:22:33;;;;;;;1.60;0.70;;;14.40;56.60;;;;;;4940031;29;20483;-76
2023/04/24 10:25:00;;;;;;;1.50;0.70;;;14.30;58.40;;;;;;4940693;29;20456;-76
2023/04/24 10:27:28;;;;;;;1.50;0.70;;;14.30;56.10;;;;;;4941094;29;20499;-77
2023/04/24 10:29:55;;;;;;;2.03;0.70;;;14.30;55.90;;;;;;4945101;29;20475;-78
2023/04/24 10:32:22;;;;;;;1.70;0.80;;;13.80;58.40;;;;;;4940547;29;20546;-77
2023/04/24 10:34:50;;;;;;;1.80;1.00;;;14.20;58.30;;;;;;4940061;29;20483;-77
2023/04/24 10:37:17;;;;;;;1.50;0.70;;;14.10;57.20;;;;;;4940220;29;20455;-75
2023/04/24 10:39:48;;;;;;;1.50;0.80;;;13.70;57.50;;;;;;4939328;29;20503;-76
2023/04/24 10:42:18;;;;;;;1.97;0.70;;;13.80;58.90;;;;;;4939100;29;20534;-76
2023/04/24 10:44:48;;;;;;;1.50;0.73;;;13.60;58.40;;;;;;4939329;29;20870;-76
2023/04/24 10:47:14;;;;;;;1.70;0.80;;;13.50;59.90;;;;;;4939218;29;20447;-76
2023/04/24 10:49:41;;;;;;;1.83;0.90;;;13.50;60.10;;;;;;4939130;29;20459;-76
2023/04/24 10:52:10;;;;;;;1.50;0.70;;;13.40;60.40;;;;;;4938950;29;20543;-76
2023/04/24 10:54:44;;;;;;;1.47;0.70;;;13.20;60.50;;;;;;4939035;29;20458;-79
2023/04/24 10:57:30;;;;;;;1.83;0.97;;;13.40;60.60;;;;;;4939630;29;20440;-78
2023/04/24 11:00:19;;;;;;;1.60;0.80;;;13.40;61.00;;;;;;4940525;29;20527;-78
2023/04/24 11:02:50;;;;;;;1.83;0.90;;;13.50;60.10;;;;;;4940396;28;20472;-78
2023/04/24 11:05:17;;;;;;;1.50;0.70;;;13.70;61.00;;;;;;4940830;29;20451;-78
2023/04/24 11:08:12;;;;;;;1.47;0.73;;;13.50;59.80;;;;;;4939857;29;20542;-78
2023/04/24 11:10:46;;;;;;;1.53;0.70;;;13.50;60.00;;;;;;4939711;29;20489;-76
2023/04/24 11:13:16;;;;;;;2.40;1.07;;;13.60;61.30;;;;;;4940501;29;20466;-78
2023/04/24 11:15:43;;;;;;;1.97;0.80;;;13.60;60.40;;;;;;4939717;29;20474;-78
2023/04/24 11:18:15;;;;;;;1.50;0.70;;;13.50;61.50;;;;;;4939004;29;20936;-78
2023/04/24 11:20:43;;;;;;;1.63;0.80;;;13.70;61.70;;;;;;4939902;29;20468;-79
2023/04/24 11:23:12;;;;;;;1.60;0.80;;;13.80;60.40;;;;;;4940264;29;20843;-79
2023/04/24 11:25:42;;;;;;;1.70;0.90;;;14.00;59.50;;;;;;4940062;29;20481;-78
2023/04/24 11:28:15;;;;;;;1.60;0.70;;;14.00;59.30;;;;;;4940344;29;20503;-77
2023/04/24 11:30:42;;;;;;;1.70;0.80;;;14.10;60.00;;;;;;4940287;29;20488;-77
2023/04/24 11:33:09;;;;;;;1.50;0.70;;;14.30;59.40;;;;;;4939313;29;20828;-77
2023/04/24 11:35:39;;;;;;;1.70;0.90;;;14.40;59.00;;;;;;4940987;29;20446;-78
2023/04/24 11:38:08;;;;;;;1.70;0.80;;;14.40;59.80;;;;;;4941209;29;20456;-77
2023/04/24 11:40:35;;;;;;;1.50;0.70;;;14.00;59.70;;;;;;4940624;29;20480;-78
2023/04/24 11:43:05;;;;;;;1.50;0.80;;;13.70;61.80;;;;;;4940882;29;20460;-78
2023/04/24 11:45:32;;;;;;;1.57;0.80;;;13.60;62.10;;;;;;4941979;29;20439;-78
2023/04/24 11:47:59;;;;;;;1.60;0.90;;;13.10;63.10;;;;;;4940404;29;20574;-78
2023/04/24 11:50:28;;;;;;;1.70;0.80;;;13.10;63.30;;;;;;4941054;29;20456;-78
2023/04/24 11:52:55;;;;;;;1.60;0.77;;;12.80;64.10;;;;;;4943776;29;20460;-79
2023/04/24 11:55:27;;;;;;;1.77;0.90;;;12.80;63.60;;;;;;4942321;29;20499;-78
2023/04/24 11:57:57;;;;;;;1.50;0.80;;;13.10;65.00;;;;;;4942498;29;20938;-77
2023/04/24 12:00:27;;;;;;;1.73;0.87;;;13.50;64.10;;;;;;4942617;29;20459;-78
2023/04/24 12:03:05;;;;;;;1.83;0.70;;;13.70;62.30;;;;;;4942651;29;20464;-79
2023/04/24 12:05:32;;;;;;;1.93;0.80;;;14.00;63.10;;;;;;4943226;29;20452;-77
2023/04/24 12:08:00;;;;;;;3.53;0.80;;;14.00;61.50;;;;;;4947413;29;20598;-80
2023/04/24 12:10:28;;;;;;;1.50;0.77;;;14.00;62.50;;;;;;4945029;29;20456;-79
2023/04/24 12:12:56;;;;;;;1.47;0.70;;;14.00;61.40;;;;;;4944635;29;20491;-79
2023/04/24 12:15:25;;;;;;;1.60;0.80;;;13.40;61.80;;;;;;4944974;29;20452;-79
2023/04/24 12:17:53;;;;;;;1.53;0.70;;;13.20;62.40;;;;;;4945898;29;20455;-79
2023/04/24 12:20:28;;;;;;;1.67;0.80;;;13.10;63.00;;;;;;4946487;29;20467;-79
2023/04/24 12:22:57;;;;;;;1.60;0.80;;;13.10;62.50;;;;;;4946235;29;20508;-79
2023/04/24 12:25:25;;;;;;;1.60;0.80;;;13.20;63.30;;;;;;4948983;29;20531;-79
2023/04/24 12:27:56;;;;;;;1.67;0.83;;;13.20;62.10;;;;;;4954691;29;20452;-80
2023/04/24 12:30:29;;;;;;;1.60;0.80;;;13.10;62.50;;;;;;4953523;29;20428;-79
2023/04/24 12:32:58;;;;;;;1.90;0.80;;;13.00;62.20;;;;;;4948664;29;20892;-79
2023/04/24 12:35:27;;;;;;;1.53;0.80;;;12.90;62.60;;;;;;4944539;29;20447;-78
2023/04/24 12:37:54;;;;;;;1.70;1.10;;;13.00;62.90;;;;;;4945871;29;20459;-78
2023/04/24 12:40:22;;;;;;;1.60;0.80;;;13.10;63.50;;;;;;4954863;29;20476;-79
2023/04/24 12:42:50;;;;;;;1.70;0.90;;;13.30;63.30;;;;;;4956361;29;20452;-79
2023/04/24 12:45:19;;;;;;;1.60;0.80;;;13.40;62.90;;;;;;4946348;29;20485;-78
2023/04/24 12:47:47;;;;;;;1.80;0.70;;;13.00;63.60;;;;;;4941012;29;20527;-79
2023/04/24 12:50:15;;;;;;;2.13;0.90;;;12.90;64.30;;;;;;4940866;29;20467;-80
2023/04/24 12:52:43;;;;;;;1.67;0.83;;;12.80;64.10;;;;;;4941275;29;20491;-79
2023/04/24 12:55:10;;;;;;;1.50;0.70;;;12.90;64.70;;;;;;4940325;29;20805;-79
2023/04/24 12:57:38;;;;;;;1.50;0.70;;;12.80;63.90;;;;;;4940593;29;20881;-79
2023/04/24 13:00:07;;;;;;;2.10;0.80;;;12.70;64.90;;;;;;4942242;29;20464;-80
2023/04/24 13:02:34;;;;;;;1.50;0.70;;;12.80;65.10;;;;;;4940996;29;20480;-79
2023/04/24 13:05:03;;;;;;;1.67;0.90;;;12.60;63.90;;;;;;4941095;29;20462;-78
2023/04/24 13:07:29;;;;;;;1.90;0.83;;;12.50;65.10;;;;;;4939486;29;21024;-79
2023/04/24 13:09:57;;;;;;;1.50;0.70;;;12.40;65.90;;;;;;4940566;29;20484;-79
2023/04/24 13:12:25;;;;;;;1.87;1.10;;;12.30;66.50;;;;;;4940671;29;20542;-79
2023/04/24 13:14:52;;;;;;;1.80;0.90;;;12.30;69.50;;;;;;4939039;29;20496;-78
2023/04/24 13:17:18;;;;;;;1.80;1.07;;;12.40;70.40;;;;;;4938150;29;20973;-77
2023/04/24 13:19:45;;;;;;;1.70;0.70;;;12.50;70.70;;;;;;4938154;29;20455;-78
2023/04/24 13:22:13;;;;;;;1.60;0.90;;;12.90;71.90;;;;;;4938425;29;20468;-79
2023/04/24 13:24:41;;;;;;;1.60;0.80;;;13.30;71.00;;;;;;4941632;29;20459;-80
2023/04/24 13:27:08;;;;;;;1.43;0.80;;;13.10;67.30;;;;;;4941384;29;20460;-79
2023/04/24 13:29:35;;;;;;;2.00;1.17;;;13.30;66.30;;;;;;4940758;29;20770;-79
2023/04/24 13:32:02;;;;;;;1.80;0.87;;;13.50;65.10;;;;;;4938659;29;20491;-77
2023/04/24 13:34:29;;;;;;;2.43;0.93;;;13.40;64.10;;;;;;4939602;29;20456;-79
2023/04/24 13:36:57;;;;;;;1.60;0.80;;;13.40;65.60;;;;;;4939361;29;20958;-79
2023/04/24 13:39:26;;;;;;;1.77;0.87;;;13.30;64.30;;;;;;4940235;29;20487;-79
2023/04/24 13:41:53;;;;;;;1.80;0.87;;;13.00;66.80;;;;;;4941026;29;20476;-79
2023/04/24 13:44:21;;;;;;;1.87;1.00;;;13.00;65.50;;;;;;4938877;29;20452;-77
2023/04/24 13:46:50;;;;;;;1.70;1.00;;;12.60;67.40;;;;;;4937601;29;20865;-78
2023/04/24 13:49:17;;;;;;;2.33;1.03;;;12.30;68.70;;;;;;4937130;29;20456;-77
2023/04/24 13:51:45;;;;;;;1.70;1.00;;;12.40;68.90;;;;;;4939163;29;20491;-78
2023/04/24 13:54:12;;;;;;;1.63;0.97;;;12.30;69.80;;;;;;4940690;29;20521;-79
2023/04/24 13:56:41;;;;;;;1.70;0.90;;;12.40;71.30;;;;;;4939822;29;20468;-79
2023/04/24 13:59:08;;;;;;;1.80;1.00;;;12.50;70.90;;;;;;4940269;29;20459;-79
2023/04/24 14:01:35;;;;;;;1.80;1.00;;;12.80;71.20;;;;;;4939753;29;20523;-79
2023/04/24 14:04:01;;;;;;;1.70;1.00;;;13.00;70.10;;;;;;4940644;29;20471;-79
2023/04/24 14:06:28;;;;;;;1.80;1.00;;;13.20;67.60;;;;;;4943006;29;20452;-79
2023/04/24 14:08:55;;;;;;;1.80;1.03;;;13.20;68.20;;;;;;4943729;29;20506;-79
2023/04/24 14:11:22;;;;;;;1.80;1.00;;;13.30;67.00;;;;;;4939774;29;20487;-77
2023/04/24 14:13:51;;;;;;;1.70;0.80;;;13.30;66.40;;;;;;4939452;29;20455;-77
2023/04/24 14:16:17;;;;;;;2.30;1.10;;;13.20;66.30;;;;;;4948823;29;20456;-78
2023/04/24 14:18:44;;;;;;;2.13;1.13;;;13.10;66.90;;;;;;4951568;29;20868;-78
2023/04/24 14:21:11;;;;;;;2.00;0.80;;;13.20;66.80;;;;;;4949677;29;20468;-80
2023/04/24 14:23:38;;;;;;;1.80;1.03;;;13.30;67.30;;;;;;4941301;29;20452;-80
2023/04/24 14:26:04;;;;;;;1.70;0.90;;;13.00;69.10;;;;;;4939584;29;20452;-79
2023/04/24 14:28:31;;;;;;;1.80;1.07;;;12.70;71.90;;;;;;4940869;29;20463;-78
2023/04/24 14:30:59;;;;;;;1.77;0.90;;;12.50;73.50;;;;;;4945107;29;20483;-80
2023/04/24 14:33:26;;;;;;;1.60;0.90;;;12.40;75.10;;;;;;4943510;29;20480;-79
2023/04/24 14:35:53;;;;;;;2.10;0.97;;;12.60;75.70;;;;;;4944946;29;20452;-81
2023/04/24 14:38:19;;;;;;;1.70;1.00;;;13.00;76.30;;;;;;4941275;29;20456;-76
2023/04/24 14:40:46;;;;;;;1.80;1.00;;;13.60;75.30;;;;;;4935567;29;21054;-78
2023/04/24 14:43:13;;;;;;;1.60;0.90;;;14.20;72.50;;;;;;4939358;29;20444;-80
2023/04/24 14:45:40;;;;;;;1.60;0.90;;;14.50;71.00;;;;;;4941884;29;20486;-78
2023/04/24 14:48:09;;;;;;;2.37;1.07;;;14.60;69.70;;;;;;4940903;29;20455;-78
2023/04/24 14:50:35;;;;;;;1.80;1.00;;;14.50;69.20;;;;;;4939745;29;20506;-79
2023/04/24 14:53:02;;;;;;;1.77;1.00;;;14.40;69.80;;;;;;4941716;29;20488;-80
2023/04/24 14:55:29;;;;;;;2.77;1.10;;;14.60;69.30;;;;;;4946050;29;20452;-80
2023/04/24 14:57:56;;;;;;;1.93;1.33;;;15.10;70.70;;;;;;4945602;29;20448;-78
2023/04/24 15:00:24;;;;;;;2.40;1.00;;;15.60;67.80;;;;;;4945853;29;20515;-81
2023/04/24 15:02:51;;;;;;;1.70;1.00;;;16.10;64.30;;;;;;4944763;29;20492;-80
2023/04/24 15:05:19;;;;;;;1.80;0.90;;;16.10;64.10;;;;;;4945026;29;21030;-80
2023/04/24 15:07:46;;;;;;;1.90;1.13;;;15.60;63.30;;;;;;4945540;29;20961;-79
2023/04/24 15:10:12;;;;;;;2.03;1.10;;;15.30;62.90;;;;;;4944511;29;20900;-80
2023/04/24 15:12:39;;;;;;;2.43;0.97;;;15.00;63.40;;;;;;4951094;28;20463;-77
2023/04/24 15:15:07;;;;;;;2.97;1.23;;;14.70;64.00;;;;;;4962241;29;20440;-81
2023/04/24 15:17:34;;;;;;;2.00;0.90;;;14.60;63.70;;;;;;4963166;28;20475;-80
2023/04/24 15:20:02;;;;;;;1.87;0.80;;;14.30;63.60;;;;;;4960345;28;20444;-80
2023/04/24 15:22:30;;;;;;;1.93;1.03;;;14.30;63.50;;;;;;4958607;29;20475;-81
2023/04/24 15:24:57;;;;;;;1.50;0.80;;;14.20;62.60;;;;;;4961524;29;20450;-83
2023/04/24 15:27:24;;;;;;;1.90;0.90;;;14.00;62.80;;;;;;4940293;29;20464;-82
2023/04/24 15:29:50;;;;;;;1.70;1.03;;;14.00;62.70;;;;;;4940242;29;20578;-80
2023/04/24 15:32:17;;;;;;;1.50;0.80;;;13.70;62.70;;;;;;4941682;29;20546;-77
2023/04/24 15:34:44;;;;;;;1.80;1.00;;;13.70;64.40;;;;;;4941508;29;20494;-78
2023/04/24 15:37:11;;;;;;;1.60;0.80;;;13.60;63.10;;;;;;4940250;29;20459;-78
2023/04/24 15:39:39;;;;;;;1.60;0.87;;;13.40;64.80;;;;;;4942443;29;20452;-78
2023/04/24 15:42:05;;;;;;;2.03;0.90;;;13.50;64.30;;;;;;4948049;29;21064;-79
2023/04/24 15:44:32;;;;;;;1.90;1.20;;;13.50;66.00;;;;;;4953520;29;20432;-79
2023/04/24 15:47:01;;;;;;;1.73;1.00;;;13.60;68.00;;;;;;4954377;29;20448;-79
2023/04/24 15:49:28;;;;;;;1.80;1.00;;;13.70;69.20;;;;;;4946976;29;20452;-78
2023/04/24 15:51:54;;;;;;;1.60;0.87;;;13.70;69.00;;;;;;4939587;29;20479;-78
2023/04/24 15:54:21;;;;;;;1.93;1.00;;;13.90;69.50;;;;;;4938863;29;20508;-78
2023/04/24 15:56:50;;;;;;;2.00;1.27;;;13.90;69.50;;;;;;4938750;29;20456;-78
2023/04/24 15:59:17;;;;;;;1.70;0.93;;;14.00;69.30;;;;;;4939583;29;21001;-77
2023/04/24 16:01:44;;;;;;;2.20;1.00;;;14.00;69.00;;;;;;4939385;29;20487;-77
2023/04/24 16:04:11;;;;;;;2.17;1.03;;;14.00;69.20;;;;;;4940306;29;20508;-78
2023/04/24 16:06:37;;;;;;;1.60;0.97;;;14.00;69.40;;;;;;4941086;29;20459;-78
2023/04/24 16:09:04;;;;;;;1.50;0.80;;;13.90;68.40;;;;;;4939961;29;20455;-78
2023/04/24 16:11:32;;;;;;;1.70;0.90;;;13.80;69.50;;;;;;4938688;29;20487;-78
2023/04/24 16:14:00;;;;;;;1.70;0.90;;;14.00;69.70;;;;;;4938518;29;20488;-78
2023/04/24 16:16:27;;;;;;;1.60;0.90;;;14.00;68.20;;;;;;4939001;29;20514;-77
2023/04/24 16:18:54;;;;;;;1.70;1.07;;;14.10;67.80;;;;;;4940234;29;20483;-78
2023/04/24 16:21:21;;;;;;;1.80;1.00;;;14.10;66.30;;;;;;4938663;29;20467;-77
2023/04/24 16:23:48;;;;;;;1.80;1.00;;;14.30;66.00;;;;;;4938529;29;20456;-77
2023/04/24 16:26:15;;;;;;;1.80;1.00;;;14.30;65.40;;;;;;4938273;29;20456;-77
2023/04/24 16:28:42;;;;;;;2.03;1.20;;;14.40;64.90;;;;;;4941893;29;20456;-77
2023/04/24 16:31:10;;;;;;;2.00;1.10;;;14.20;65.60;;;;;;4945757;29;20510;-78
2023/04/24 16:33:38;;;;;;;2.53;1.20;;;14.10;64.40;;;;;;4945366;29;20511;-78
2023/04/24 16:36:05;;;;;;;1.80;0.93;;;14.10;64.70;;;;;;4944741;29;20460;-77
2023/04/24 16:38:31;;;;;;;1.80;0.80;;;14.20;64.40;;;;;;4942993;29;20455;-77
2023/04/24 16:40:58;;;;;;;1.80;0.80;;;14.20;63.40;;;;;;4938990;29;20523;-77
2023/04/24 16:43:26;;;;;;;2.23;0.87;;;14.00;63.40;;;;;;4939765;29;20445;-77
2023/04/24 16:45:53;;;;;;;1.63;0.90;;;13.90;64.60;;;;;;4943431;29;20515;-78
2023/04/24 16:48:21;;;;;;;1.70;0.90;;;13.80;64.50;;;;;;4939231;29;20451;-79
2023/04/24 16:50:48;;;;;;;1.90;1.00;;;13.50;63.20;;;;;;4940615;29;20982;-77
2023/04/24 16:53:15;;;;;;;1.80;1.00;;;13.50;63.70;;;;;;4940026;29;20530;-79